sensor_id;sensor_type;location;lat;lon;timestamp;pressure;altitude;pressure_sealevel;temperature;humidity
76374;BME280;65197;50.164;8.012;2023-04-01T00:00:28;93754.19;;;6.39;100.00
76374;BME280;65197;50.164;8.012;2023-04-01T00:02:54;93760.16;;;6.38;100.00
76374;BME280;65197;50.164;8.012;2023-04-01T00:05:19;93752.28;;;6.28;100.00
76374;BME280;65197;50.164;8.012;2023-04-01T00:07:45;93753.44;;;6.37;100.00
76374;BME280;65197;50.164;8.012;2023-04-01T00:10:12;93757.06;;;6.33;100.00
76374;BME280;65197;50.164;8.012;2023-04-01T00:12:38;93756.53;;;6.28;100.00
76374;BME280;65197;50.164;8.012;2023-04-01T00:15:07;93741.88;;;6.19;100.00
76374;BME280;65197;50.164;8.012;2023-04-01T00:17:33;93763.94;;;6.31;100.00
76374;BME280;65197;50.164;8.012;2023-04-01T00:19:59;93754.91;;;6.27;100.00
76374;BME280;65197;50.164;8.012;2023-04-01T00:22:24;93739.47;;;6.17;100.00
76374;BME280;65197;50.164;8.012;2023-04-01T00:24:51;93758.53;;;6.23;100.00
76374;BME280;65197;50.164;8.012;2023-04-01T00:27:17;93761.97;;;6.22;100.00
76374;BME280;65197;50.164;8.012;2023-04-01T00:29:46;93762.34;;;6.16;100.00
76374;BME280;65197;50.164;8.012;2023-04-01T00:32:13;93744.34;;;6.06;100.00
76374;BME280;65197;50.164;8.012;2023-04-01T00:34:39;93757.63;;;6.09;100.00
76374;BME280;65197;50.164;8.012;2023-04-01T00:37:07;93754.66;;;6.03;100.00
76374;BME280;65197;50.164;8.012;2023-04-01T00:39:34;93753.56;;;6.07;100.00
76374;BME280;65197;50.164;8.012;2023-04-01T00:42:00;93754.56;;;6.04;100.00
76374;BME280;65197;50.164;8.012;2023-04-01T00:44:29;93739.56;;;6.01;100.00
76374;BME280;65197;50.164;8.012;2023-04-01T00:46:56;93744.63;;;6.01;100.00
76374;BME280;65197;50.164;8.012;2023-04-01T00:49:28;93738.13;;;5.97;100.00
76374;BME280;65197;50.164;8.012;2023-04-01T00:51:56;93744.97;;;5.95;100.00
76374;BME280;65197;50.164;8.012;2023-04-01T00:54:24;93738.94;;;5.98;100.00
76374;BME280;65197;50.164;8.012;2023-04-01T00:56:53;93746.63;;;5.96;100.00
76374;BME280;65197;50.164;8.012;2023-04-01T00:59:33;93756.75;;;5.96;100.00
76374;BME280;65197;50.164;8.012;2023-04-01T01:02:04;93741.72;;;5.93;100.00
76374;BME280;65197;50.164;8.012;2023-04-01T01:04:33;93738.63;;;5.88;100.00
76374;BME280;65197;50.164;8.012;2023-04-01T01:07:25;93753.56;;;5.93;100.00
76374;BME280;65197;50.164;8.012;2023-04-01T01:10:02;93746.78;;;5.93;100.00
76374;BME280;65197;50.164;8.012;2023-04-01T01:13:34;93756.25;;;5.90;100.00
76374;BME280;65197;50.164;8.012;2023-04-01T01:15:49;93746.22;;;5.88;100.00
76374;BME280;65197;50.164;8.012;2023-04-01T01:26:40;93743.16;;;5.83;100.00
76374;BME280;65197;50.164;8.012;2023-04-01T01:37:54;93738.63;;;5.88;100.00
76374;BME280;65197;50.164;8.012;2023-04-01T01:40:20;93727.59;;;5.89;100.00
76374;BME280;65197;50.164;8.012;2023-04-01T01:42:49;93741.72;;;5.93;100.00
76374;BME280;65197;50.164;8.012;2023-04-01T01:45:19;93735.06;;;5.92;100.00
76374;BME280;65197;50.164;8.012;2023-04-01T01:47:46;93723.13;;;5.94;100.00
76374;BME280;65197;50.164;8.012;2023-04-01T01:50:13;93726.56;;;5.93;100.00
76374;BME280;65197;50.164;8.012;2023-04-01T01:52:40;93725.78;;;5.91;100.00
76374;BME280;65197;50.164;8.012;2023-04-01T01:55:34;93729.44;;;6.01;100.00
76374;BME280;65197;50.164;8.012;2023-04-01T01:58:13;93730.88;;;6.05;100.00
76374;BME280;65197;50.164;8.012;2023-04-01T02:00:42;93725.91;;;6.04;100.00
76374;BME280;65197;50.164;8.012;2023-04-01T02:03:11;93706.75;;;6.00;100.00
76374;BME280;65197;50.164;8.012;2023-04-01T02:05:38;93705.56;;;6.05;100.00
76374;BME280;65197;50.164;8.012;2023-04-01T02:08:13;93724.66;;;6.11;100.00
76374;BME280;65197;50.164;8.012;2023-04-01T02:10:42;93716.44;;;6.07;100.00
76374;BME280;65197;50.164;8.012;2023-04-01T02:13:21;93725.81;;;6.05;100.00
76374;BME280;65197;50.164;8.012;2023-04-01T02:15:51;93723.84;;;6.10;100.00
76374;BME280;65197;50.164;8.012;2023-04-01T02:18:20;93717.13;;;6.09;100.00
76374;BME280;65197;50.164;8.012;2023-04-01T02:20:46;93708.19;;;6.04;100.00
76374;BME280;65197;50.164;8.012;2023-04-01T02:23:12;93718.16;;;6.07;99.77
76374;BME280;65197;50.164;8.012;2023-04-01T02:25:39;93735.59;;;6.11;100.00
76374;BME280;65197;50.164;8.012;2023-04-01T02:31:28;93717.13;;;6.09;99.88
76374;BME280;65197;50.164;8.012;2023-04-01T02:33:54;93709.22;;;6.01;100.00
76374;BME280;65197;50.164;8.012;2023-04-01T02:36:20;93726.66;;;6.06;100.00
76374;BME280;65197;50.164;8.012;2023-04-01T02:38:46;93723.38;;;6.04;99.90
76374;BME280;65197;50.164;8.012;2023-04-01T02:41:12;93717.34;;;6.06;100.00
76374;BME280;65197;50.164;8.012;2023-04-01T02:43:38;93707.94;;;5.94;100.00
76374;BME280;65197;50.164;8.012;2023-04-01T02:46:03;93727.63;;;6.03;100.00
76374;BME280;65197;50.164;8.012;2023-04-01T02:48:29;93729.44;;;6.01;100.00
76374;BME280;65197;50.164;8.012;2023-04-01T02:50:55;93714.88;;;6.05;100.00
76374;BME280;65197;50.164;8.012;2023-04-01T02:53:21;93725.81;;;6.05;100.00
76374;BME280;65197;50.164;8.012;2023-04-01T02:55:46;93730.88;;;6.05;100.00
76374;BME280;65197;50.164;8.012;2023-04-01T02:58:14;93703.63;;;5.96;100.00
76374;BME280;65197;50.164;8.012;2023-04-01T03:00:40;93706.16;;;5.96;100.00
76374;BME280;65197;50.164;8.012;2023-04-01T03:03:05;93719.31;;;6.01;100.00
76374;BME280;65197;50.164;8.012;2023-04-01T03:05:31;93717.88;;;5.97;100.00
76374;BME280;65197;50.164;8.012;2023-04-01T03:07:56;93715.13;;;5.86;100.00
76374;BME280;65197;50.164;8.012;2023-04-01T03:10:21;93709.25;;;5.85;100.00
76374;BME280;65197;50.164;8.012;2023-04-01T03:12:47;93723.25;;;5.91;100.00
76374;BME280;65197;50.164;8.012;2023-04-01T03:15:13;93712.31;;;5.91;100.00
76374;BME280;65197;50.164;8.012;2023-04-01T03:17:40;93716.56;;;5.90;100.00
76374;BME280;65197;50.164;8.012;2023-04-01T03:20:06;93706.72;;;5.85;100.00
76374;BME280;65197;50.164;8.012;2023-04-01T03:22:33;93706.47;;;5.76;100.00
76374;BME280;65197;50.164;8.012;2023-04-01T03:24:59;93710.28;;;5.83;100.00
76374;BME280;65197;50.164;8.012;2023-04-01T03:27:24;93713.50;;;5.85;100.00
76374;BME280;65197;50.164;8.012;2023-04-01T03:29:50;93715.94;;;5.86;100.00
76374;BME280;65197;50.164;8.012;2023-04-01T03:32:15;93712.59;;;5.86;100.00
76374;BME280;65197;50.164;8.012;2023-04-01T03:34:40;93713.50;;;5.85;100.00
76374;BME280;65197;50.164;8.012;2023-04-01T03:37:06;93700.16;;;5.83;100.00
76374;BME280;65197;50.164;8.012;2023-04-01T03:39:31;93707.09;;;5.79;100.00
76374;BME280;65197;50.164;8.012;2023-04-01T03:41:57;93705.66;;;5.75;100.00
76374;BME280;65197;50.164;8.012;2023-04-01T03:44:22;93702.31;;;5.75;100.00
76374;BME280;65197;50.164;8.012;2023-04-01T03:46:48;93711.53;;;5.76;100.00
76374;BME280;65197;50.164;8.012;2023-04-01T03:49:14;93707.53;;;5.72;100.00
76374;BME280;65197;50.164;8.012;2023-04-01T03:51:41;93704.47;;;5.67;100.00
76374;BME280;65197;50.164;8.012;2023-04-01T03:54:08;93695.97;;;5.68;100.00
76374;BME280;65197;50.164;8.012;2023-04-01T03:56:33;93673.59;;;5.61;100.00
76374;BME280;65197;50.164;8.012;2023-04-01T03:59:02;93710.25;;;5.69;100.00
76374;BME280;65197;50.164;8.012;2023-04-01T04:01:28;93707.91;;;5.66;100.00
76374;BME280;65197;50.164;8.012;2023-04-01T04:03:55;93710.97;;;5.71;100.00
76374;BME280;65197;50.164;8.012;2023-04-01T04:06:20;93704.47;;;5.67;100.00
76374;BME280;65197;50.164;8.012;2023-04-01T04:08:46;93708.53;;;5.69;100.00
76374;BME280;65197;50.164;8.012;2023-04-01T04:11:11;93699.59;;;5.63;100.00
76374;BME280;65197;50.164;8.012;2023-04-01T04:13:37;93706.09;;;5.68;100.00
76374;BME280;65197;50.164;8.012;2023-04-01T04:16:03;93721.09;;;5.71;100.00
76374;BME280;65197;50.164;8.012;2023-04-01T04:18:29;93710.97;;;5.71;100.00
76374;BME280;65197;50.164;8.012;2023-04-01T04:20:54;93714.59;;;5.67;100.00
76374;BME280;65197;50.164;8.012;2023-04-01T04:23:20;93722.91;;;5.69;100.00
76374;BME280;65197;50.164;8.012;2023-04-01T04:25:55;93719.47;;;5.70;100.00
76374;BME280;65197;50.164;8.012;2023-04-01T04:28:20;93717.84;;;5.69;100.00
76374;BME280;65197;50.164;8.012;2023-04-01T04:30:46;93715.59;;;5.64;100.00
76374;BME280;65197;50.164;8.012;2023-04-01T04:33:11;93719.09;;;5.61;100.00
76374;BME280;65197;50.164;8.012;2023-04-01T04:35:36;93712.59;;;5.57;100.00
76374;BME280;65197;50.164;8.012;2023-04-01T04:38:02;93729.47;;;5.57;100.00
76374;BME280;65197;50.164;8.012;2023-04-01T04:40:27;93702.81;;;5.37;100.00
76374;BME280;65197;50.164;8.012;2023-04-01T04:42:52;93725.22;;;5.57;100.00
76374;BME280;65197;50.164;8.012;2023-04-01T04:45:18;93731.28;;;5.55;100.00
76374;BME280;65197;50.164;8.012;2023-04-01T04:47:43;93720.06;;;5.59;100.00
76374;BME280;65197;50.164;8.012;2023-04-01T04:50:09;93707.91;;;5.51;100.00
76374;BME280;65197;50.164;8.012;2023-04-01T04:52:35;93731.09;;;5.58;100.00
76374;BME280;65197;50.164;8.012;2023-04-01T04:55:00;93722.97;;;5.53;100.00
76374;BME280;65197;50.164;8.012;2023-04-01T04:57:26;93729.47;;;5.57;100.00
76374;BME280;65197;50.164;8.012;2023-04-01T04:59:51;93720.00;;;5.60;100.00
76374;BME280;65197;50.164;8.012;2023-04-01T05:02:16;93705.69;;;5.45;100.00
76374;BME280;65197;50.164;8.012;2023-04-01T05:04:42;93720.19;;;5.57;100.00
76374;BME280;65197;50.164;8.012;2023-04-01T05:07:07;93726.69;;;5.61;100.00
76374;BME280;65197;50.164;8.012;2023-04-01T05:09:32;93716.56;;;5.61;100.00
76374;BME280;65197;50.164;8.012;2023-04-01T05:11:58;93734.97;;;5.63;100.00
76374;BME280;65197;50.164;8.012;2023-04-01T05:14:24;93687.94;;;5.47;100.00
76374;BME280;65197;50.164;8.012;2023-04-01T05:16:49;93713.59;;;5.55;100.00
76374;BME280;65197;50.164;8.012;2023-04-01T05:19:15;93740.88;;;5.64;100.00
76374;BME280;65197;50.164;8.012;2023-04-01T05:21:41;93729.03;;;5.65;100.00
76374;BME280;65197;50.164;8.012;2023-04-01T05:24:09;93718.84;;;5.66;100.00
76374;BME280;65197;50.164;8.012;2023-04-01T05:26:35;93733.56;;;5.59;100.00
76374;BME280;65197;50.164;8.012;2023-04-01T05:29:02;93722.34;;;5.63;100.00
76374;BME280;65197;50.164;8.012;2023-04-01T05:31:27;93725.72;;;5.64;100.00
76374;BME280;65197;50.164;8.012;2023-04-01T05:33:53;93731.75;;;5.61;100.00
76374;BME280;65197;50.164;8.012;2023-04-01T05:36:19;93721.47;;;5.65;100.00
76374;BME280;65197;50.164;8.012;2023-04-01T05:38:44;93724.69;;;5.67;100.00
76374;BME280;65197;50.164;8.012;2023-04-01T05:41:11;93719.63;;;5.67;100.00
76374;BME280;65197;50.164;8.012;2023-04-01T05:43:37;93725.44;;;5.69;100.00
76374;BME280;65197;50.164;8.012;2023-04-01T05:46:03;93708.06;;;5.62;100.00
76374;BME280;65197;50.164;8.012;2023-04-01T05:48:28;93722.16;;;5.67;100.00
76374;BME280;65197;50.164;8.012;2023-04-01T05:50:53;93709.69;;;5.63;100.00
76374;BME280;65197;50.164;8.012;2023-04-01T05:53:19;93725.50;;;5.67;100.00
76374;BME280;65197;50.164;8.012;2023-04-01T05:55:44;93713.88;;;5.65;100.00
76374;BME280;65197;50.164;8.012;2023-04-01T05:58:10;93700.13;;;5.54;100.00
76374;BME280;65197;50.164;8.012;2023-04-01T06:00:35;93709.91;;;5.60;100.00
76374;BME280;65197;50.164;8.012;2023-04-01T06:03:01;93709.16;;;5.58;100.00
76374;BME280;65197;50.164;8.012;2023-04-01T06:05:33;93714.75;;;5.63;100.00
76374;BME280;65197;50.164;8.012;2023-04-01T06:08:09;93722.53;;;5.60;100.00
76374;BME280;65197;50.164;8.012;2023-04-01T06:16:44;93732.44;;;5.49;100.00
76374;BME280;65197;50.164;8.012;2023-04-01T06:27:41;93732.97;;;5.40;100.00
76374;BME280;65197;50.164;8.012;2023-04-01T06:30:34;93734.50;;;5.43;100.00
76374;BME280;65197;50.164;8.012;2023-04-01T06:36:01;93749.88;;;5.54;100.00
76374;BME280;65197;50.164;8.012;2023-04-01T06:41:33;93749.97;;;5.67;100.00
76374;BME280;65197;50.164;8.012;2023-04-01T06:46:58;93754.50;;;5.76;100.00
76374;BME280;65197;50.164;8.012;2023-04-01T06:54:42;93734.91;;;5.79;100.00
76374;BME280;65197;50.164;8.012;2023-04-01T06:57:34;93732.66;;;5.89;100.00
76374;BME280;65197;50.164;8.012;2023-04-01T07:00:02;93744.59;;;5.87;100.00
76374;BME280;65197;50.164;8.012;2023-04-01T07:02:38;93736.81;;;5.90;100.00
76374;BME280;65197;50.164;8.012;2023-04-01T07:05:05;93732.75;;;5.87;100.00
76374;BME280;65197;50.164;8.012;2023-04-01T07:07:53;93740.41;;;5.86;100.00
76374;BME280;65197;50.164;8.012;2023-04-01T07:10:35;93733.09;;;5.81;100.00
76374;BME280;65197;50.164;8.012;2023-04-01T07:13:10;93733.19;;;5.80;100.00
76374;BME280;65197;50.164;8.012;2023-04-01T07:15:41;93722.53;;;5.75;100.00
76374;BME280;65197;50.164;8.012;2023-04-01T07:18:14;93737.53;;;6.35;100.00
76374;BME280;65197;50.164;8.012;2023-04-01T07:20:41;93744.34;;;7.03;100.00
76374;BME280;65197;50.164;8.012;2023-04-01T07:23:26;93733.94;;;6.93;100.00
76374;BME280;65197;50.164;8.012;2023-04-01T07:26:00;93747.75;;;6.75;100.00
76374;BME280;65197;50.164;8.012;2023-04-01T07:28:31;93755.78;;;6.54;100.00
76374;BME280;65197;50.164;8.012;2023-04-01T07:36:24;93758.78;;;5.90;100.00
76374;BME280;65197;50.164;8.012;2023-04-01T07:39:33;93763.00;;;5.89;100.00
76374;BME280;65197;50.164;8.012;2023-04-01T07:47:27;93769.31;;;5.82;100.00
76374;BME280;65197;50.164;8.012;2023-04-01T07:55:04;93793.94;;;5.94;100.00
76374;BME280;65197;50.164;8.012;2023-04-01T08:00:16;93771.31;;;5.91;100.00
76374;BME280;65197;50.164;8.012;2023-04-01T08:05:41;93794.50;;;5.99;100.00
76374;BME280;65197;50.164;8.012;2023-04-01T08:08:50;93792.97;;;5.97;100.00
76374;BME280;65197;50.164;8.012;2023-04-01T08:11:42;93802.28;;;5.96;100.00
76374;BME280;65197;50.164;8.012;2023-04-01T08:17:07;93785.94;;;5.86;100.00
76374;BME280;65197;50.164;8.012;2023-04-01T08:19:47;93795.22;;;6.01;100.00
76374;BME280;65197;50.164;8.012;2023-04-01T08:22:19;93799.75;;;6.10;100.00
76374;BME280;65197;50.164;8.012;2023-04-01T08:24:48;93789.06;;;6.05;100.00
76374;BME280;65197;50.164;8.012;2023-04-01T08:27:28;93805.00;;;6.07;100.00
76374;BME280;65197;50.164;8.012;2023-04-01T08:30:03;93801.38;;;6.11;100.00
76374;BME280;65197;50.164;8.012;2023-04-01T08:32:36;93798.03;;;6.11;100.00
76374;BME280;65197;50.164;8.012;2023-04-01T08:37:39;93806.25;;;6.15;100.00
76374;BME280;65197;50.164;8.012;2023-04-01T08:40:15;93818.47;;;6.22;100.00
76374;BME280;65197;50.164;8.012;2023-04-01T08:46:04;93816.72;;;6.23;100.00
76374;BME280;65197;50.164;8.012;2023-04-01T08:51:33;93807.53;;;6.22;100.00
76374;BME280;65197;50.164;8.012;2023-04-01T08:54:13;93813.66;;;6.32;100.00
76374;BME280;65197;50.164;8.012;2023-04-01T08:56:50;93817.38;;;6.41;100.00
76374;BME280;65197;50.164;8.012;2023-04-01T08:59:47;93803.25;;;6.36;100.00
76374;BME280;65197;50.164;8.012;2023-04-01T09:08:02;93823.78;;;6.46;100.00
76374;BME280;65197;50.164;8.012;2023-04-01T09:13:56;93825.75;;;6.55;100.00
76374;BME280;65197;50.164;8.012;2023-04-01T09:25:26;93818.84;;;6.86;100.00
76374;BME280;65197;50.164;8.012;2023-04-01T09:28:20;93837.81;;;6.93;100.00
76374;BME280;65197;50.164;8.012;2023-04-01T09:31:16;93829.38;;;6.80;100.00
76374;BME280;65197;50.164;8.012;2023-04-01T09:34:09;93838.41;;;6.70;100.00
76374;BME280;65197;50.164;8.012;2023-04-01T09:37:14;93835.00;;;6.71;100.00
76374;BME280;65197;50.164;8.012;2023-04-01T09:45:43;93851.41;;;6.92;100.00
76374;BME280;65197;50.164;8.012;2023-04-01T09:51:25;93847.00;;;6.81;100.00
76374;BME280;65197;50.164;8.012;2023-04-01T09:56:39;93852.78;;;6.83;100.00
76374;BME280;65197;50.164;8.012;2023-04-01T10:05:00;93859.22;;;6.89;100.00
76374;BME280;65197;50.164;8.012;2023-04-01T10:15:27;93868.25;;;6.79;100.00
76374;BME280;65197;50.164;8.012;2023-04-01T10:18:40;93874.41;;;6.89;100.00
76374;BME280;65197;50.164;8.012;2023-04-01T10:21:16;93870.97;;;6.90;100.00
76374;BME280;65197;50.164;8.012;2023-04-01T10:24:19;93855.31;;;6.83;100.00
76374;BME280;65197;50.164;8.012;2023-04-01T10:27:00;93844.56;;;6.80;100.00
76374;BME280;65197;50.164;8.012;2023-04-01T10:29:50;93867.13;;;7.11;100.00
76374;BME280;65197;50.164;8.012;2023-04-01T10:38:23;93871.47;;;7.09;100.00
76374;BME280;65197;50.164;8.012;2023-04-01T10:41:50;93878.69;;;7.15;100.00
76374;BME280;65197;50.164;8.012;2023-04-01T10:52:46;93870.34;;;7.28;100.00
76374;BME280;65197;50.164;8.012;2023-04-01T11:07:06;93874.97;;;7.48;100.00
76374;BME280;65197;50.164;8.012;2023-04-01T11:15:48;93890.63;;;7.28;100.00
76374;BME280;65197;50.164;8.012;2023-04-01T11:30:49;93886.66;;;7.78;100.00
76374;BME280;65197;50.164;8.012;2023-04-01T11:33:40;93891.41;;;7.70;100.00
76374;BME280;65197;50.164;8.012;2023-04-01T11:39:24;93894.00;;;7.55;100.00
76374;BME280;65197;50.164;8.012;2023-04-01T11:42:01;93903.03;;;7.59;100.00
76374;BME280;65197;50.164;8.012;2023-04-01T11:44:32;93901.06;;;7.50;100.00
76374;BME280;65197;50.164;8.012;2023-04-01T11:47:33;93908.97;;;7.46;100.00
76374;BME280;65197;50.164;8.012;2023-04-01T11:56:20;93915.56;;;7.48;100.00
76374;BME280;65197;50.164;8.012;2023-04-01T12:04:17;93926.22;;;7.68;100.00
76374;BME280;65197;50.164;8.012;2023-04-01T12:10:04;93919.31;;;7.70;100.00
76374;BME280;65197;50.164;8.012;2023-04-01T12:15:43;93930.84;;;7.88;100.00
76374;BME280;65197;50.164;8.012;2023-04-01T12:18:28;93939.16;;;7.90;100.00
76374;BME280;65197;50.164;8.012;2023-04-01T12:24:06;93939.41;;;8.00;100.00
76374;BME280;65197;50.164;8.012;2023-04-01T12:26:59;93945.25;;;7.87;100.00
76374;BME280;65197;50.164;8.012;2023-04-01T12:35:02;93950.16;;;8.03;100.00
76374;BME280;65197;50.164;8.012;2023-04-01T12:46:26;93944.00;;;8.60;100.00
76374;BME280;65197;50.164;8.012;2023-04-01T12:51:58;93942.97;;;8.62;100.00
76374;BME280;65197;50.164;8.012;2023-04-01T12:54:59;93947.03;;;8.78;100.00
76374;BME280;65197;50.164;8.012;2023-04-01T13:21:22;93977.53;;;8.52;100.00
76374;BME280;65197;50.164;8.012;2023-04-01T13:26:46;93978.13;;;8.43;100.00
76374;BME280;65197;50.164;8.012;2023-04-01T13:29:37;93977.94;;;8.32;100.00
76374;BME280;65197;50.164;8.012;2023-04-01T13:34:37;93981.06;;;8.23;100.00
76374;BME280;65197;50.164;8.012;2023-04-01T13:37:15;93981.06;;;8.23;100.00
76374;BME280;65197;50.164;8.012;2023-04-01T13:40:04;93973.25;;;9.04;100.00
76374;BME280;65197;50.164;8.012;2023-04-01T13:42:53;93983.59;;;9.39;100.00
76374;BME280;65197;50.164;8.012;2023-04-01T13:45:42;93980.78;;;8.80;100.00
76374;BME280;65197;50.164;8.012;2023-04-01T13:51:15;93991.75;;;8.67;100.00
76374;BME280;65197;50.164;8.012;2023-04-01T13:54:34;93990.22;;;8.52;100.00
76374;BME280;65197;50.164;8.012;2023-04-01T13:59:48;93988.09;;;8.32;100.00
76374;BME280;65197;50.164;8.012;2023-04-01T14:05:12;93999.59;;;8.25;100.00
76374;BME280;65197;50.164;8.012;2023-04-01T14:11:19;93995.28;;;8.12;100.00
76374;BME280;65197;50.164;8.012;2023-04-01T14:13:54;93999.59;;;8.25;100.00
76374;BME280;65197;50.164;8.012;2023-04-01T14:18:56;93997.38;;;8.33;100.00
76374;BME280;65197;50.164;8.012;2023-04-01T14:24:50;94006.28;;;7.99;100.00
76374;BME280;65197;50.164;8.012;2023-04-01T14:35:41;94020.81;;;7.55;100.00
76374;BME280;65197;50.164;8.012;2023-04-01T14:41:20;94032.78;;;7.39;100.00
76374;BME280;65197;50.164;8.012;2023-04-01T14:44:16;94037.41;;;7.47;100.00
76374;BME280;65197;50.164;8.012;2023-04-01T14:47:15;94030.59;;;7.61;100.00
76374;BME280;65197;50.164;8.012;2023-04-01T14:49:51;94029.09;;;7.86;100.00
76374;BME280;65197;50.164;8.012;2023-04-01T14:52:28;94024.59;;;8.04;100.00
76374;BME280;65197;50.164;8.012;2023-04-01T14:54:56;94018.22;;;8.11;100.00
76374;BME280;65197;50.164;8.012;2023-04-01T14:57:24;94031.56;;;8.14;100.00
76374;BME280;65197;50.164;8.012;2023-04-01T15:05:31;94044.03;;;8.17;100.00
76374;BME280;65197;50.164;8.012;2023-04-01T15:13:13;94016.63;;;8.23;100.00
76374;BME280;65197;50.164;8.012;2023-04-01T15:21:18;94050.53;;;7.95;100.00
76374;BME280;65197;50.164;8.012;2023-04-01T15:26:51;94065.63;;;7.83;100.00
76374;BME280;65197;50.164;8.012;2023-04-01T15:32:26;94066.13;;;7.47;100.00
76374;BME280;65197;50.164;8.012;2023-04-01T15:35:31;94073.06;;;7.44;100.00
76374;BME280;65197;50.164;8.012;2023-04-01T15:40:47;94078.88;;;7.74;100.00
76374;BME280;65197;50.164;8.012;2023-04-01T15:46:43;94081.72;;;8.65;100.00
76374;BME280;65197;50.164;8.012;2023-04-01T15:54:27;94088.81;;;8.33;100.00
76374;BME280;65197;50.164;8.012;2023-04-01T15:57:09;94087.53;;;8.26;100.00
76374;BME280;65197;50.164;8.012;2023-04-01T16:02:31;94103.75;;;8.10;100.00
76374;BME280;65197;50.164;8.012;2023-04-01T16:08:09;94101.81;;;7.73;100.00
76374;BME280;65197;50.164;8.012;2023-04-01T16:13:25;94101.97;;;7.70;100.00
76374;BME280;65197;50.164;8.012;2023-04-01T16:18:59;94101.28;;;7.68;100.00
76374;BME280;65197;50.164;8.012;2023-04-01T16:21:43;94103.78;;;7.53;100.00
76374;BME280;65197;50.164;8.012;2023-04-01T16:24:24;94109.75;;;7.38;100.00
76374;BME280;65197;50.164;8.012;2023-04-01T16:29:57;94113.38;;;7.20;100.00
76374;BME280;65197;50.164;8.012;2023-04-01T16:32:42;94116.09;;;7.17;100.00
76374;BME280;65197;50.164;8.012;2023-04-01T16:35:17;94122.06;;;7.30;100.00
76374;BME280;65197;50.164;8.012;2023-04-01T16:40:46;94128.97;;;7.28;100.00
76374;BME280;65197;50.164;8.012;2023-04-01T16:43:30;94125.88;;;7.23;100.00
76374;BME280;65197;50.164;8.012;2023-04-01T16:46:23;94144.34;;;7.25;100.00
76374;BME280;65197;50.164;8.012;2023-04-01T16:49:13;94141.19;;;7.21;100.00
76374;BME280;65197;50.164;8.012;2023-04-01T16:51:52;94150.41;;;7.22;100.00
76374;BME280;65197;50.164;8.012;2023-04-01T16:59:58;94154.28;;;7.13;100.00
76374;BME280;65197;50.164;8.012;2023-04-01T17:02:43;94158.44;;;7.14;100.00
76374;BME280;65197;50.164;8.012;2023-04-01T17:05:14;94166.97;;;7.13;100.00
76374;BME280;65197;50.164;8.012;2023-04-01T17:07:48;94163.22;;;7.05;100.00
76374;BME280;65197;50.164;8.012;2023-04-01T17:16:00;94167.84;;;6.98;100.00
76374;BME280;65197;50.164;8.012;2023-04-01T17:21:20;94191.38;;;7.00;100.00
76374;BME280;65197;50.164;8.012;2023-04-01T17:24:04;94190.06;;;6.93;100.00
76374;BME280;65197;50.164;8.012;2023-04-01T17:26:42;94192.53;;;6.95;100.00
76374;BME280;65197;50.164;8.012;2023-04-01T17:29:24;94194.31;;;6.93;100.00
76374;BME280;65197;50.164;8.012;2023-04-01T17:37:36;94205.63;;;6.87;100.00
76374;BME280;65197;50.164;8.012;2023-04-01T17:45:55;94213.00;;;6.76;100.00
76374;BME280;65197;50.164;8.012;2023-04-01T17:48:37;94221.97;;;6.81;100.00
76374;BME280;65197;50.164;8.012;2023-04-01T17:51:17;94225.72;;;6.74;100.00
76374;BME280;65197;50.164;8.012;2023-04-01T17:54:00;94213.31;;;6.70;100.00
76374;BME280;65197;50.164;8.012;2023-04-01T17:57:01;94227.69;;;6.69;100.00
76374;BME280;65197;50.164;8.012;2023-04-01T17:59:42;94229.75;;;6.62;100.00
76374;BME280;65197;50.164;8.012;2023-04-01T18:02:38;94237.34;;;6.62;100.00
76374;BME280;65197;50.164;8.012;2023-04-01T18:05:30;94235.88;;;6.58;100.00
76374;BME280;65197;50.164;8.012;2023-04-01T18:11:44;94251.41;;;6.52;100.00
76374;BME280;65197;50.164;8.012;2023-04-01T18:21:56;94246.31;;;6.36;100.00
76374;BME280;65197;50.164;8.012;2023-04-01T18:24:43;94268.72;;;6.44;100.00
76374;BME280;65197;50.164;8.012;2023-04-01T18:27:50;94281.94;;;6.49;100.00
76374;BME280;65197;50.164;8.012;2023-04-01T18:30:28;94275.41;;;6.45;100.00
76374;BME280;65197;50.164;8.012;2023-04-01T18:33:04;94287.00;;;6.49;100.00
76374;BME280;65197;50.164;8.012;2023-04-01T18:35:49;94277.22;;;6.43;100.00
76374;BME280;65197;50.164;8.012;2023-04-01T18:38:16;94293.13;;;6.45;100.00
76374;BME280;65197;50.164;8.012;2023-04-01T18:49:57;94293.03;;;6.31;100.00
76374;BME280;65197;50.164;8.012;2023-04-01T18:52:32;94283.69;;;6.16;100.00
76374;BME280;65197;50.164;8.012;2023-04-01T18:57:54;94314.22;;;6.12;100.00
76374;BME280;65197;50.164;8.012;2023-04-01T19:00:28;94311.25;;;6.04;100.00
76374;BME280;65197;50.164;8.012;2023-04-01T19:03:20;94323.91;;;6.04;100.00
76374;BME280;65197;50.164;8.012;2023-04-01T19:05:51;94319.59;;;6.06;100.00
76374;BME280;65197;50.164;8.012;2023-04-01T19:08:31;94333.66;;;6.12;100.00
76374;BME280;65197;50.164;8.012;2023-04-01T19:16:30;94348.63;;;5.99;100.00
76374;BME280;65197;50.164;8.012;2023-04-01T19:22:21;94344.28;;;5.84;100.00
76374;BME280;65197;50.164;8.012;2023-04-01T19:28:31;94347.94;;;5.96;100.00
76374;BME280;65197;50.164;8.012;2023-04-01T19:31:19;94341.78;;;6.01;100.00
76374;BME280;65197;50.164;8.012;2023-04-01T19:36:52;94352.19;;;6.12;100.00
76374;BME280;65197;50.164;8.012;2023-04-01T19:45:06;94363.34;;;6.08;100.00
76374;BME280;65197;50.164;8.012;2023-04-01T19:50:27;94357.84;;;6.00;100.00
76374;BME280;65197;50.164;8.012;2023-04-01T19:52:56;94370.84;;;6.10;100.00
76374;BME280;65197;50.164;8.012;2023-04-01T19:55:37;94381.81;;;6.10;100.00
76374;BME280;65197;50.164;8.012;2023-04-01T19:58:20;94392.75;;;6.11;100.00
76374;BME280;65197;50.164;8.012;2023-04-01T20:00:51;94379.56;;;6.04;100.00
76374;BME280;65197;50.164;8.012;2023-04-01T20:03:47;94391.09;;;6.10;100.00
76374;BME280;65197;50.164;8.012;2023-04-01T20:11:51;94400.13;;;6.16;100.00
76374;BME280;65197;50.164;8.012;2023-04-01T20:15:19;94404.66;;;6.09;100.00